EmailTwitter


Observations de surface / Québec / CYHU (71371)

Régions: Québec | Canada | États-Unis | Europe | France | UK | Elsewhere
Station
Affichage
Infos & localisation pour CYHU (71371) | Aide pour décoder les METARs

Observations prises le 2017-05-30 à 13H00 UTC à MONTREAL/ST HUBE, QB (CYHU)

Etat du ciel: couvert.

Obstacle(s) à la visibilité: faible pluie.

Température: 14.0 Celsius

Point de rosée: 12.0 Celsius

Humidité relative: 88%

Facteur vent (rafales): 12.

Vents: Sud à 22 km/h ou 12 noeuds.

Rafale du vent: 35 km/h ou 19 noeuds.

Pression au niveau moyen de la mer: 101.63 kilopascals.

Calage altimétrique: 101.62 kilopascals ou 30.01 pouces de mercure.

Visibilité horizontale: 9.00 milles terrestres ou 14.40 kilomètres.

Hauteur du plafond: 1981 mètres ( 6500 pieds ).

Observation METAR:

CYHU 301300Z AUTO 18012G19KT 9SM -RA FEW014 BKN065 OVC080 14/12 A3001 RMK

SLP163=